Seapacis — VRBE2 — position and weather

sailwx.info

Track history (hours):
 
Tides and Currents Weather Stations Pressure Air Temp Water Temp Dewpoint Dewpoint Depression Visibility Wind Speed Wind Dir Waves Ship Positions

Seapacis

Last reported at 2018-May-19 03:43 UTC. Time now 2018-May-20 15:37 UTC.
Position N 35°59' W 023°15'.

Length 241 m; draft 11.5 m.

Type: Ship (hazmat cat D). MMSI: 477999500.

Date/timePositionNaut miles runAvg speedWind from/ knotsBaromVisibWave heightAir tempDewpointWater temp
2018-May-19 03:43N 35°59' W 023°15'1113.6
2018-May-19 02:52N 35°59' W 023°29'513.5
2018-May-19 02:30N 35°59' W 023°35'713.6
2018-May-19 02:00N 35°59' W 023°43'713.5
2018-May-19 01:30N 35°59' W 023°52'713.4
2018-May-19 01:00N 35°59' W 023°60'713.3
2018-May-19 00:30N 35°60' W 024°08'713.3
2018-May-19 00:00N 35°60' W 024°16'713.3
2018-May-18 23:30N 35°60' W 024°25'713.5
2018-May-18 23:00N 35°60' W 024°33'713.7
2018-May-18 22:30N 35°60' W 024°41'713.8
2018-May-18 22:00N 35°60' W 024°50'713.7
2018-May-18 21:30N 35°60' W 024°58'713.9
2018-May-18 21:01N 36°00' W 025°07'713.9
2018-May-18 20:30N 36°00' W 025°16'714.1
2018-May-18 20:00N 35°60' W 025°24'713.9
2018-May-18 19:31N 35°60' W 025°33'714.0
2018-May-18 19:00N 36°00' W 025°42'713.9
2018-May-18 18:30N 36°01' W 025°50'813.9
2018-May-18 17:57N 36°01' W 025°60'613.6
2018-May-18 17:29N 36°02' W 026°08'8713.8
2018-May-18 11:13N 36°07' W 027°54'1013.4
2018-May-18 10:27N 36°08' W 028°07'  
2018-May-10 02:05N 26°20' W 079°28'214.7
2018-May-10 01:58N 26°18' W 079°28'714.8
2018-May-10 01:29N 26°11' W 079°28'714.7
2018-May-10 01:00N 26°04' W 079°28'1214.6
2018-May-10 00:11N 25°52' W 079°30'514.7
2018-May-09 23:50N 25°47' W 079°31'914.8
2018-May-09 23:13N 25°38' W 079°33'  
Track history (hours):
 
Tides and Currents Weather Stations Pressure Air Temp Water Temp Dewpoint Dewpoint Depression Visibility Wind Speed Wind Dir Waves Ship Positions

Seapacis

Last reported at 2018-May-19 03:43 UTC. Time now 2018-May-20 15:37 UTC.
Position N 35°59' W 023°15'.

Length 241 m; draft 11.5 m.

Type: Ship (hazmat cat D). MMSI: 477999500.

Date/timePositionNaut miles runAvg speedWind from/ knotsBaromVisibWave heightAir tempDewpointWater temp
2018-May-19 03:43N 35°59' W 023°15'1113.6
2018-May-19 02:52N 35°59' W 023°29'513.5
2018-May-19 02:30N 35°59' W 023°35'713.6
2018-May-19 02:00N 35°59' W 023°43'713.5
2018-May-19 01:30N 35°59' W 023°52'713.4
2018-May-19 01:00N 35°59' W 023°60'713.3
2018-May-19 00:30N 35°60' W 024°08'713.3
2018-May-19 00:00N 35°60' W 024°16'713.3
2018-May-18 23:30N 35°60' W 024°25'713.5
2018-May-18 23:00N 35°60' W 024°33'713.7
2018-May-18 22:30N 35°60' W 024°41'713.8
2018-May-18 22:00N 35°60' W 024°50'713.7
2018-May-18 21:30N 35°60' W 024°58'713.9
2018-May-18 21:01N 36°00' W 025°07'713.9
2018-May-18 20:30N 36°00' W 025°16'714.1
2018-May-18 20:00N 35°60' W 025°24'713.9
2018-May-18 19:31N 35°60' W 025°33'714.0
2018-May-18 19:00N 36°00' W 025°42'713.9
2018-May-18 18:30N 36°01' W 025°50'813.9
2018-May-18 17:57N 36°01' W 025°60'613.6
2018-May-18 17:29N 36°02' W 026°08'8713.8
2018-May-18 11:13N 36°07' W 027°54'1013.4
2018-May-18 10:27N 36°08' W 028°07'  
2018-May-10 02:05N 26°20' W 079°28'214.7
2018-May-10 01:58N 26°18' W 079°28'714.8
2018-May-10 01:29N 26°11' W 079°28'714.7
2018-May-10 01:00N 26°04' W 079°28'1214.6
2018-May-10 00:11N 25°52' W 079°30'514.7
2018-May-09 23:50N 25°47' W 079°31'914.8
2018-May-09 23:13N 25°38' W 079°33'  

Dump ship's entire track history